Time;durP1;ratioP1;P1;durP2;ratioP2;P2;SDS_P1;SDS_P2;PMS_P1;PMS_P2;Temp;Humidity;BMP_temperature;BMP_pressure;BME280_temperature;BME280_humidity;BME280_pressure;Samples;Min_cycle;Max_cycle;Signal;HPM_P1;HPM_P2
2021/12/05 00:20:24;;;;;;;12.00;7.10;;;0.70;99.90;;;;;;5009206;28;20653;-60
2021/12/05 00:22:46;;;;;;;8.52;6.15;;;0.60;99.90;;;;;;5008356;28;20068;-60
2021/12/05 00:25:27;;;;;;;10.18;6.60;;;0.70;99.90;;;;;;5006470;28;20033;-60
2021/12/05 00:46:16;;;;;;;9.60;6.95;;;0.70;99.90;;;;;;5008256;28;20061;-60
2021/12/05 00:51:54;;;;;;;10.95;6.97;;;0.70;99.90;;;;;;5008796;28;20041;-59
2021/12/05 01:15:29;;;;;;;8.27;5.85;;;0.70;99.90;;;;;;5012091;28;20103;-59
2021/12/05 01:18:04;;;;;;;9.55;6.65;;;0.70;99.90;;;;;;5020123;28;20036;-57
2021/12/05 01:20:34;;;;;;;8.88;6.55;;;0.70;99.90;;;;;;5027306;28;20061;-58
2021/12/05 01:23:09;;;;;;;10.63;6.97;;;0.70;99.90;;;;;;5011800;28;20069;-59
2021/12/05 01:25:43;;;;;;;9.40;7.03;;;0.70;99.90;;;;;;5026710;28;20084;-57
2021/12/05 01:49:21;;;;;;;9.77;6.45;;;0.70;99.90;;;;;;5011116;28;20045;-59
2021/12/05 01:57:40;;;;;;;7.32;6.35;;;0.70;99.90;;;;;;5011268;28;20076;-59
2021/12/05 02:29:47;;;;;;;8.40;6.25;;;0.70;99.90;;;;;;5010652;28;20041;-54
2021/12/05 02:42:51;;;;;;;7.72;5.57;;;0.70;99.90;;;;;;5010838;28;20040;-52
2021/12/05 02:45:17;;;;;;;7.88;6.15;;;0.70;99.90;;;;;;5010687;28;20040;-55
2021/12/05 02:47:48;;;;;;;8.65;6.07;;;0.70;99.90;;;;;;5010163;28;20430;-57
2021/12/05 02:50:15;;;;;;;10.20;6.85;;;0.70;99.90;;;;;;5009927;28;20029;-57
2021/12/05 02:52:42;;;;;;;7.38;6.07;;;0.80;99.90;;;;;;5008940;28;20026;-55
2021/12/05 02:55:29;;;;;;;6.63;5.80;;;0.70;99.90;;;;;;5009980;28;20510;-57
2021/12/05 02:58:03;;;;;;;7.10;6.35;;;0.70;99.90;;;;;;4994393;28;20074;-57
2021/12/05 03:00:40;;;;;;;7.10;6.00;;;0.70;99.90;;;;;;5010310;28;20072;-57
2021/12/05 03:03:20;;;;;;;9.10;6.75;;;0.70;99.90;;;;;;5010390;28;20025;-55
2021/12/05 03:05:52;;;;;;;7.20;5.57;;;0.70;99.90;;;;;;5010765;28;20033;-55
2021/12/05 03:08:18;;;;;;;8.05;6.60;;;0.70;99.90;;;;;;5008683;28;20080;-56
2021/12/05 03:10:45;;;;;;;7.53;6.22;;;0.80;99.90;;;;;;5010666;28;20030;-57
2021/12/05 03:13:11;;;;;;;9.57;7.55;;;0.80;99.90;;;;;;5009417;28;20018;-58
2021/12/05 03:15:37;;;;;;;8.07;6.65;;;0.80;99.90;;;;;;5009106;28;20056;-58
2021/12/05 03:18:03;;;;;;;9.30;7.47;;;0.80;99.90;;;;;;5009935;28;20474;-58
2021/12/05 03:20:28;;;;;;;9.73;7.43;;;0.80;99.90;;;;;;4991529;28;20046;-56
2021/12/05 03:22:54;;;;;;;8.93;7.53;;;0.80;99.90;;;;;;5094016;23;20014;-52
2021/12/05 03:25:20;;;;;;;8.95;6.95;;;0.70;99.90;;;;;;5009609;28;20461;-52
2021/12/05 03:27:49;;;;;;;9.20;7.00;;;0.70;99.90;;;;;;5008500;28;20040;-52
2021/12/05 03:30:21;;;;;;;10.63;7.65;;;0.80;99.90;;;;;;5009899;28;20030;-48
2021/12/05 03:32:49;;;;;;;9.82;7.45;;;0.80;99.90;;;;;;5009727;28;20485;-52
2021/12/05 03:35:16;;;;;;;10.32;7.97;;;0.80;99.90;;;;;;5009416;28;20017;-49
2021/12/05 03:37:41;;;;;;;12.25;8.07;;;0.80;99.90;;;;;;5009303;28;20029;-48
2021/12/05 03:40:08;;;;;;;10.07;7.95;;;0.80;99.90;;;;;;5008310;28;20033;-50
2021/12/05 03:42:35;;;;;;;12.00;7.82;;;0.80;99.90;;;;;;5009467;28;20426;-55
2021/12/05 03:45:03;;;;;;;10.13;7.80;;;0.80;99.90;;;;;;5009569;28;20025;-49
2021/12/05 03:47:30;;;;;;;10.82;8.30;;;0.80;99.90;;;;;;5007893;28;20030;-49
2021/12/05 03:49:56;;;;;;;10.95;8.60;;;0.80;99.90;;;;;;5009614;28;20461;-54
2021/12/05 03:52:23;;;;;;;11.38;7.80;;;0.80;99.90;;;;;;5008944;28;20038;-54
2021/12/05 03:54:49;;;;;;;12.88;9.30;;;0.80;99.90;;;;;;5007891;28;20030;-49
2021/12/05 03:57:15;;;;;;;11.13;8.73;;;0.80;99.90;;;;;;5009300;28;20037;-50
2021/12/05 03:59:41;;;;;;;14.05;9.05;;;0.80;99.90;;;;;;5007699;28;20206;-50
2021/12/05 04:02:08;;;;;;;15.25;9.80;;;0.80;99.90;;;;;;5009187;28;20076;-58
2021/12/05 04:04:34;;;;;;;11.73;8.85;;;0.80;99.90;;;;;;5009229;28;20033;-49
2021/12/05 04:07:00;;;;;;;14.75;9.82;;;0.80;99.90;;;;;;5009025;28;20030;-50
2021/12/05 04:09:26;;;;;;;13.57;9.13;;;0.80;99.90;;;;;;5008255;28;20113;-50
2021/12/05 04:11:58;;;;;;;13.27;9.57;;;0.80;99.90;;;;;;4992810;28;20152;-52
2021/12/05 04:14:41;;;;;;;12.73;9.35;;;0.80;99.90;;;;;;5008979;28;20103;-51
2021/12/05 04:17:10;;;;;;;14.98;9.00;;;0.80;99.90;;;;;;5008642;28;20022;-49
2021/12/05 04:19:37;;;;;;;13.82;9.80;;;0.80;99.90;;;;;;4996915;28;20026;-53
2021/12/05 04:22:05;;;;;;;21.77;10.02;;;0.80;99.90;;;;;;5008876;28;20030;-51
2021/12/05 04:24:31;;;;;;;15.15;9.40;;;0.80;99.90;;;;;;5008398;28;20037;-49
2021/12/05 04:26:57;;;;;;;14.80;10.48;;;0.80;99.90;;;;;;5008904;28;20453;-48
2021/12/05 04:29:23;;;;;;;15.65;10.38;;;0.80;99.90;;;;;;5008575;28;20101;-51
2021/12/05 04:31:49;;;;;;;14.90;9.63;;;0.80;99.90;;;;;;5008409;28;20030;-48
2021/12/05 04:34:14;;;;;;;14.50;9.50;;;0.80;99.90;;;;;;5008356;28;20505;-49
2021/12/05 04:36:44;;;;;;;13.20;9.77;;;0.80;99.90;;;;;;5006650;28;20034;-51
2021/12/05 04:39:10;;;;;;;16.08;9.85;;;0.80;99.90;;;;;;5007361;28;20045;-50
2021/12/05 04:41:40;;;;;;;12.95;9.48;;;0.80;99.90;;;;;;5008766;28;20030;-48
2021/12/05 04:44:07;;;;;;;16.98;10.82;;;0.80;99.90;;;;;;5008653;28;20091;-51
2021/12/05 04:46:33;;;;;;;15.55;9.40;;;0.80;99.90;;;;;;5007316;28;20752;-54
2021/12/05 04:49:00;;;;;;;16.60;10.95;;;0.80;99.90;;;;;;5008052;28;20052;-50
2021/12/05 04:51:30;;;;;;;15.43;10.52;;;0.80;99.90;;;;;;5008711;28;20029;-49
2021/12/05 04:53:57;;;;;;;17.23;10.75;;;0.80;99.90;;;;;;5008370;28;20046;-52
2021/12/05 04:56:25;;;;;;;22.70;10.52;;;0.80;99.90;;;;;;4989144;28;20137;-49
2021/12/05 04:58:52;;;;;;;17.08;10.73;;;0.80;99.90;;;;;;5007849;28;20053;-48
2021/12/05 05:01:18;;;;;;;16.15;10.40;;;0.80;99.90;;;;;;5008347;28;20504;-52
2021/12/05 05:03:44;;;;;;;20.00;12.90;;;0.80;99.90;;;;;;5008138;28;20030;-50
2021/12/05 05:06:15;;;;;;;19.25;11.48;;;0.80;99.90;;;;;;5008275;28;20554;-48
2021/12/05 05:08:43;;;;;;;19.23;13.20;;;0.80;99.90;;;;;;5007536;28;20041;-55
2021/12/05 05:11:12;;;;;;;20.13;12.05;;;0.80;99.90;;;;;;5006277;28;20042;-51
2021/12/05 05:13:38;;;;;;;22.02;12.70;;;0.80;99.90;;;;;;5006700;28;20033;-49
2021/12/05 05:16:06;;;;;;;21.02;12.18;;;0.80;99.90;;;;;;5008268;28;20041;-48
2021/12/05 05:18:47;;;;;;;21.27;12.43;;;0.80;99.90;;;;;;5008193;28;20026;-50
2021/12/05 05:45:44;;;;;;;22.75;13.27;;;0.80;99.90;;;;;;5008156;28;20069;-49
2021/12/05 05:50:35;;;;;;;21.50;12.35;;;0.80;99.90;;;;;;5008651;28;20061;-49
2021/12/05 05:53:01;;;;;;;20.60;13.93;;;0.80;99.90;;;;;;5011156;28;20571;-48
2021/12/05 05:55:27;;;;;;;20.52;13.13;;;0.80;99.90;;;;;;5011674;28;20026;-50
2021/12/05 06:00:35;;;;;;;21.23;12.93;;;0.80;99.90;;;;;;5011354;28;20018;-50
2021/12/05 06:03:21;;;;;;;22.40;13.32;;;0.80;99.90;;;;;;5011216;28;20061;-55
2021/12/05 06:05:55;;;;;;;21.80;13.38;;;0.80;99.90;;;;;;5010224;28;20114;-54
2021/12/05 06:08:24;;;;;;;23.48;13.13;;;0.80;99.90;;;;;;5009597;28;20037;-49
2021/12/05 06:10:53;;;;;;;21.15;12.32;;;0.80;99.90;;;;;;5011067;28;20026;-54
2021/12/05 06:13:19;;;;;;;20.95;12.23;;;0.80;99.90;;;;;;5010893;28;20037;-51
2021/12/05 06:15:47;;;;;;;21.50;12.55;;;0.80;99.90;;;;;;5011250;28;20034;-57
2021/12/05 06:18:13;;;;;;;21.35;13.25;;;0.80;99.90;;;;;;5010666;28;20030;-51
2021/12/05 06:20:38;;;;;;;22.60;12.38;;;0.80;99.90;;;;;;5011058;28;20034;-52
2021/12/05 06:23:04;;;;;;;23.05;13.38;;;0.80;99.90;;;;;;5010250;28;20522;-48
2021/12/05 06:25:34;;;;;;;19.25;12.48;;;0.80;99.90;;;;;;5010847;28;20057;-49
2021/12/05 06:28:04;;;;;;;18.98;12.18;;;0.80;99.90;;;;;;5010486;28;20025;-52
2021/12/05 06:48:43;;;;;;;19.48;12.63;;;0.80;99.90;;;;;;5010139;28;20577;-54
2021/12/05 06:51:10;;;;;;;21.40;12.20;;;0.80;99.90;;;;;;5010962;28;20029;-50
2021/12/05 06:53:36;;;;;;;19.85;12.90;;;0.80;99.90;;;;;;5009898;28;20022;-52
2021/12/05 06:56:02;;;;;;;18.40;12.10;;;0.80;99.90;;;;;;5010042;28;20022;-50
2021/12/05 06:58:28;;;;;;;20.30;12.77;;;0.70;99.90;;;;;;5009707;28;20058;-54
2021/12/05 07:00:54;;;;;;;18.65;12.73;;;0.80;99.90;;;;;;5010176;28;20053;-51
2021/12/05 07:03:20;;;;;;;19.30;13.20;;;0.80;99.90;;;;;;5007850;28;20061;-50
2021/12/05 07:08:34;;;;;;;19.38;12.65;;;0.80;99.90;;;;;;5009565;28;20054;-49
2021/12/05 07:11:03;;;;;;;20.25;14.68;;;0.80;99.90;;;;;;5009330;28;20036;-49
2021/12/05 07:19:18;;;;;;;23.85;14.90;;;0.80;99.90;;;;;;5009870;28;20021;-49
2021/12/05 07:21:40;;;;;;;23.92;13.02;;;0.80;99.90;;;;;;5009926;28;20033;-57
2021/12/05 07:24:25;;;;;;;22.80;14.90;;;0.80;99.90;;;;;;5005533;28;20073;-51
2021/12/05 07:40:26;;;;;;;20.13;13.93;;;0.80;99.90;;;;;;5009946;28;20095;-54
2021/12/05 07:43:05;;;;;;;26.27;14.10;;;0.80;99.90;;;;;;5009543;28;20026;-53
2021/12/05 07:45:38;;;;;;;21.60;14.30;;;0.80;99.90;;;;;;5008129;28;20426;-49
2021/12/05 07:48:11;;;;;;;19.98;14.07;;;0.80;99.90;;;;;;5008692;28;20054;-53
2021/12/05 07:50:49;;;;;;;21.95;14.73;;;0.80;99.90;;;;;;5009434;28;20029;-54
2021/12/05 07:53:25;;;;;;;21.63;12.98;;;0.80;99.90;;;;;;5009660;28;20026;-52
2021/12/05 07:55:58;;;;;;;23.23;14.75;;;0.80;99.90;;;;;;5007902;28;20032;-53
2021/12/05 07:58:50;;;;;;;26.48;15.38;;;0.80;99.90;;;;;;5008879;28;20532;-48
2021/12/05 08:15:14;;;;;;;19.42;12.60;;;0.80;99.90;;;;;;5006692;28;20577;-52
2021/12/05 08:17:41;;;;;;;25.67;14.40;;;0.80;99.90;;;;;;5008306;28;20098;-50
2021/12/05 08:20:10;;;;;;;24.92;15.77;;;0.80;99.90;;;;;;5008137;28;20037;-52
2021/12/05 08:22:36;;;;;;;21.77;13.60;;;0.80;99.90;;;;;;5009102;28;20099;-58
2021/12/05 08:25:10;;;;;;;18.30;13.25;;;0.80;99.90;;;;;;5008412;28;20042;-51
2021/12/05 08:27:38;;;;;;;23.10;12.70;;;0.80;99.90;;;;;;5008134;28;20541;-52
2021/12/05 08:30:09;;;;;;;19.83;12.43;;;0.80;99.90;;;;;;5007967;28;20034;-50
2021/12/05 08:32:51;;;;;;;19.73;13.77;;;0.80;99.90;;;;;;5009011;28;20690;-60
2021/12/05 08:35:43;;;;;;;22.55;13.85;;;0.80;99.90;;;;;;5006750;28;20033;-49
2021/12/05 08:38:52;;;;;;;18.73;12.93;;;0.80;99.90;;;;;;5008250;28;20056;-50
2021/12/05 09:29:24;;;;;;;24.15;14.50;;;0.90;99.90;;;;;;5011421;28;20048;-54
2021/12/05 10:07:05;;;;;;;22.38;14.10;;;0.90;99.90;;;;;;5011587;28;20096;-53
2021/12/05 10:14:51;;;;;;;22.48;14.85;;;0.90;99.90;;;;;;5011134;28;20113;-53
2021/12/05 10:37:06;;;;;;;23.77;14.40;;;1.00;99.90;;;;;;5007676;28;20025;-52
2021/12/05 10:39:32;;;;;;;21.30;14.10;;;1.00;99.90;;;;;;5008739;28;20072;-50
2021/12/05 10:42:13;;;;;;;21.25;16.48;;;1.00;99.90;;;;;;5008581;28;20747;-53
2021/12/05 10:44:44;;;;;;;21.05;15.35;;;1.00;99.90;;;;;;5010135;28;20502;-53
2021/12/05 10:47:10;;;;;;;23.13;14.88;;;1.00;99.90;;;;;;5010447;28;20553;-53
2021/12/05 10:49:36;;;;;;;22.08;15.32;;;1.10;99.90;;;;;;5010458;28;20014;-49
2021/12/05 10:52:01;;;;;;;21.45;14.40;;;1.10;99.90;;;;;;5010323;28;20041;-55
2021/12/05 10:54:28;;;;;;;23.60;15.52;;;1.10;99.90;;;;;;5009091;28;20028;-52
2021/12/05 10:57:01;;;;;;;22.73;15.07;;;1.10;99.90;;;;;;5010567;28;20026;-56
2021/12/05 10:59:39;;;;;;;22.42;16.27;;;1.10;99.90;;;;;;5010249;28;20598;-52
2021/12/05 11:02:08;;;;;;;24.48;15.82;;;1.10;99.90;;;;;;5002181;28;20021;-48
2021/12/05 11:04:39;;;;;;;22.85;15.88;;;1.10;99.90;;;;;;5008407;28;20034;-54
2021/12/05 11:07:10;;;;;;;25.38;16.25;;;1.10;99.90;;;;;;4991851;28;20410;-52
2021/12/05 11:09:45;;;;;;;25.08;17.83;;;1.20;99.90;;;;;;5009387;28;20026;-54
2021/12/05 11:12:10;;;;;;;23.65;16.33;;;1.20;99.90;;;;;;5010662;28;20038;-51
2021/12/05 11:14:47;;;;;;;24.17;16.20;;;1.20;99.90;;;;;;5010445;28;20033;-57
2021/12/05 11:17:21;;;;;;;28.35;16.27;;;1.20;99.90;;;;;;5008744;28;20084;-52
2021/12/05 11:20:03;;;;;;;25.95;16.42;;;1.20;99.90;;;;;;5009792;28;20574;-49
2021/12/05 11:22:41;;;;;;;24.63;15.88;;;1.20;99.90;;;;;;5008227;28;20076;-53
2021/12/05 11:25:14;;;;;;;24.55;16.17;;;1.20;99.90;;;;;;5010345;28;20034;-52
2021/12/05 11:27:42;;;;;;;26.30;17.08;;;1.20;99.90;;;;;;5008984;28;20030;-53
2021/12/05 11:30:19;;;;;;;25.02;16.95;;;1.20;99.90;;;;;;5006674;28;20278;-52
2021/12/05 11:32:51;;;;;;;27.15;16.92;;;1.20;99.90;;;;;;5009493;28;20601;-52
2021/12/05 11:35:16;;;;;;;23.83;15.98;;;1.30;99.90;;;;;;5009457;28;20022;-55
2021/12/05 11:37:50;;;;;;;24.50;17.35;;;1.30;99.90;;;;;;5009392;28;20064;-50
2021/12/05 11:40:15;;;;;;;25.88;18.45;;;1.20;99.90;;;;;;5009463;28;20057;-52
2021/12/05 11:43:02;;;;;;;26.38;17.95;;;1.30;99.90;;;;;;5007863;28;20149;-56
2021/12/05 11:45:29;;;;;;;;;;;1.30;99.90;;;;;;5009782;28;20520;-49
2021/12/05 11:47:56;;;;;;;24.70;15.52;;;1.30;99.90;;;;;;5009191;28;19996;-50
2021/12/05 11:50:34;;;;;;;29.33;18.38;;;1.30;99.90;;;;;;4987538;28;20062;-56
2021/12/05 11:53:01;;;;;;;27.20;18.33;;;1.30;99.90;;;;;;5005830;28;20026;-53
2021/12/05 11:55:30;;;;;;;25.75;17.73;;;1.30;99.90;;;;;;5002554;28;20049;-54
2021/12/05 11:57:56;;;;;;;29.65;19.05;;;1.30;99.90;;;;;;5009485;28;20018;-58
2021/12/05 12:00:23;;;;;;;25.40;17.17;;;1.30;99.90;;;;;;5009809;28;20028;-49
2021/12/05 12:02:52;;;;;;;26.83;17.17;;;1.30;99.90;;;;;;5009397;28;20030;-50
2021/12/05 12:05:32;;;;;;;30.48;18.27;;;1.30;99.90;;;;;;5009035;28;20037;-56
2021/12/05 12:08:10;;;;;;;26.73;17.80;;;1.30;99.90;;;;;;5009077;28;20034;-54
2021/12/05 12:10:57;;;;;;;26.17;18.50;;;1.30;99.90;;;;;;5008947;28;20032;-52
2021/12/05 12:13:31;;;;;;;29.05;18.65;;;1.30;99.90;;;;;;5009135;28;20022;-52
2021/12/05 12:16:00;;;;;;;31.90;18.38;;;1.40;99.90;;;;;;5008831;28;20060;-51
2021/12/05 12:18:32;;;;;;;27.15;19.30;;;1.30;99.90;;;;;;5008559;28;20075;-48
2021/12/05 12:21:04;;;;;;;28.52;17.80;;;1.40;99.90;;;;;;5008502;28;20014;-52
2021/12/05 12:23:30;;;;;;;28.15;17.70;;;1.40;99.90;;;;;;5007912;28;20140;-49
2021/12/05 12:25:58;;;;;;;29.33;18.83;;;1.40;99.90;;;;;;5008720;28;20065;-49
2021/12/05 12:28:25;;;;;;;28.52;19.25;;;1.40;99.90;;;;;;5008311;28;20091;-48
2021/12/05 12:30:58;;;;;;;26.95;18.70;;;1.40;99.90;;;;;;5008707;28;20026;-51
2021/12/05 12:33:52;;;;;;;29.08;19.83;;;1.40;99.90;;;;;;5008728;28;20034;-51
2021/12/05 12:36:32;;;;;;;32.55;18.65;;;1.40;99.90;;;;;;5007783;28;20502;-55
2021/12/05 12:39:03;;;;;;;30.02;17.63;;;1.40;99.90;;;;;;5008129;28;20536;-52
2021/12/05 12:41:29;;;;;;;28.77;18.20;;;1.40;99.90;;;;;;5012270;28;20051;-49
2021/12/05 12:43:58;;;;;;;32.05;20.02;;;1.40;99.90;;;;;;5010956;28;20029;-53
2021/12/05 12:46:44;;;;;;;31.08;18.73;;;1.40;99.90;;;;;;5007362;28;20030;-50
2021/12/05 12:49:15;;;;;;;33.88;18.77;;;1.40;99.90;;;;;;5008101;28;20033;-49
2021/12/05 12:52:07;;;;;;;28.95;19.15;;;1.40;99.90;;;;;;5007558;28;20061;-52
2021/12/05 12:54:43;;;;;;;27.80;17.48;;;1.40;99.90;;;;;;4994240;28;20044;-55
2021/12/05 12:57:24;;;;;;;28.55;18.90;;;1.40;99.90;;;;;;5009054;28;20652;-48
2021/12/05 13:00:00;;;;;;;27.33;17.85;;;1.40;99.90;;;;;;5007579;28;20037;-49
2021/12/05 13:02:51;;;;;;;24.15;17.83;;;1.40;99.90;;;;;;5002325;28;20034;-55
2021/12/05 13:11:00;;;;;;;29.52;19.00;;;1.40;99.90;;;;;;5014606;28;20118;-48
2021/12/05 13:13:28;;;;;;;28.77;19.33;;;1.30;99.90;;;;;;5014715;28;20028;-52
2021/12/05 13:15:59;;;;;;;27.17;18.15;;;1.30;99.90;;;;;;5015264;28;20017;-51
2021/12/05 13:18:32;;;;;;;25.35;17.77;;;1.20;99.90;;;;;;5014888;28;20029;-51
2021/12/05 13:21:10;;;;;;;27.20;17.58;;;1.20;99.90;;;;;;5014851;28;20614;-48
2021/12/05 13:23:40;;;;;;;27.50;17.40;;;1.20;99.90;;;;;;5014308;28;20295;-52
2021/12/05 13:26:33;;;;;;;28.70;19.02;;;1.20;99.90;;;;;;5013319;28;20627;-53
2021/12/05 13:29:20;;;;;;;26.92;18.10;;;1.20;99.90;;;;;;5013381;28;20088;-51
2021/12/05 13:31:46;;;;;;;30.83;17.40;;;1.20;99.90;;;;;;5015064;28;20493;-56
2021/12/05 13:34:21;;;;;;;25.35;18.20;;;1.10;99.90;;;;;;5014972;28;20060;-50
2021/12/05 13:36:55;;;;;;;27.87;19.07;;;1.10;99.90;;;;;;5015065;28;20036;-50
2021/12/05 13:39:41;;;;;;;31.52;19.70;;;1.10;99.90;;;;;;5014687;28;20442;-51
2021/12/05 13:42:39;;;;;;;30.58;17.80;;;1.00;99.90;;;;;;5014889;28;20037;-49
2021/12/05 13:45:17;;;;;;;27.85;17.90;;;1.00;99.90;;;;;;5014952;28;20076;-48
2021/12/05 13:48:09;;;;;;;29.60;18.20;;;0.90;99.90;;;;;;5014630;28;20084;-51
2021/12/05 13:50:44;;;;;;;27.95;16.60;;;0.90;99.90;;;;;;4995437;28;20072;-55
2021/12/05 13:53:09;;;;;;;27.63;18.52;;;0.90;99.90;;;;;;4994990;28;20406;-48
2021/12/05 13:55:43;;;;;;;24.80;15.95;;;0.90;99.90;;;;;;5010165;28;20152;-55
2021/12/05 13:58:30;;;;;;;30.58;18.42;;;0.90;99.90;;;;;;5013485;28;20027;-56
2021/12/05 14:01:08;;;;;;;32.47;19.40;;;0.80;99.90;;;;;;4994798;28;20037;-51
2021/12/05 14:03:57;;;;;;;44.03;21.58;;;0.80;99.90;;;;;;5004631;28;20434;-53
2021/12/05 14:06:41;;;;;;;32.47;19.88;;;0.70;99.90;;;;;;5013426;28;20039;-49
2021/12/05 14:09:11;;;;;;;26.85;16.88;;;0.70;99.90;;;;;;5011987;28;20057;-51
2021/12/05 14:11:59;;;;;;;24.92;15.38;;;0.70;99.90;;;;;;5012727;28;20587;-48
2021/12/05 14:14:49;;;;;;;27.55;17.73;;;0.70;99.90;;;;;;5010427;28;20073;-49
2021/12/05 14:17:19;;;;;;;26.50;17.38;;;0.60;99.90;;;;;;5010716;28;20100;-49
2021/12/05 14:19:49;;;;;;;26.02;16.45;;;0.60;99.90;;;;;;5011067;28;20033;-51
2021/12/05 14:22:17;;;;;;;25.42;17.10;;;0.60;99.90;;;;;;5009398;28;20064;-50
2021/12/05 14:24:46;;;;;;;23.63;15.60;;;0.60;99.90;;;;;;5010873;28;20034;-53
2021/12/05 14:27:19;;;;;;;27.35;16.67;;;0.60;99.90;;;;;;5010674;28;20033;-51
2021/12/05 14:29:47;;;;;;;24.60;16.50;;;0.60;99.90;;;;;;5010476;28;20371;-56
2021/12/05 14:32:14;;;;;;;27.33;16.70;;;0.50;99.90;;;;;;5010991;28;20030;-53
2021/12/05 14:34:42;;;;;;;22.45;15.27;;;0.50;99.90;;;;;;5011084;28;20144;-53
2021/12/05 14:37:15;;;;;;;24.00;15.82;;;0.50;99.90;;;;;;5011411;28;20022;-55
2021/12/05 14:39:43;;;;;;;21.80;15.73;;;0.50;99.90;;;;;;5010567;28;20457;-56
2021/12/05 14:42:16;;;;;;;24.70;16.08;;;0.50;99.90;;;;;;5011379;28;20040;-53
2021/12/05 14:44:43;;;;;;;22.63;15.90;;;0.50;99.90;;;;;;5010487;28;20466;-52
2021/12/05 14:47:11;;;;;;;26.60;16.35;;;0.50;99.90;;;;;;5010790;28;20026;-57
2021/12/05 14:49:50;;;;;;;27.30;16.33;;;0.40;99.90;;;;;;5010326;28;20056;-54
2021/12/05 14:52:20;;;;;;;27.38;17.45;;;0.50;99.90;;;;;;5010536;28;20497;-49
2021/12/05 14:54:47;;;;;;;24.92;16.73;;;0.40;99.90;;;;;;5010431;28;20018;-48
2021/12/05 14:57:20;;;;;;;23.00;15.98;;;0.40;99.90;;;;;;5010712;28;20024;-56
2021/12/05 14:59:48;;;;;;;24.00;16.52;;;0.50;99.90;;;;;;5010045;28;20034;-53
2021/12/05 15:02:16;;;;;;;28.95;16.38;;;0.50;99.90;;;;;;5010049;28;20080;-48
2021/12/05 15:04:50;;;;;;;24.10;15.90;;;0.50;99.90;;;;;;5010353;28;20030;-49
2021/12/05 15:07:21;;;;;;;22.25;14.75;;;0.50;99.90;;;;;;5008724;28;20064;-51
2021/12/05 15:09:51;;;;;;;26.40;16.95;;;0.50;99.90;;;;;;5008894;28;20081;-56
2021/12/05 15:12:22;;;;;;;23.83;14.70;;;0.50;99.90;;;;;;5010264;28;20030;-51
2021/12/05 15:14:50;;;;;;;24.40;15.95;;;0.50;99.90;;;;;;5009759;28;20034;-55
2021/12/05 15:17:40;;;;;;;25.45;15.65;;;0.50;99.90;;;;;;5010260;28;20662;-56
2021/12/05 15:20:15;;;;;;;25.13;14.82;;;0.50;99.90;;;;;;5010534;28;20083;-52
2021/12/05 15:22:44;;;;;;;25.92;14.95;;;0.50;99.90;;;;;;5008570;28;20670;-49
2021/12/05 15:25:14;;;;;;;19.90;14.13;;;0.50;99.90;;;;;;5009447;28;20117;-51
2021/12/05 15:27:41;;;;;;;24.13;14.52;;;0.50;99.90;;;;;;5009446;28;20394;-52
2021/12/05 15:30:16;;;;;;;22.83;14.88;;;0.50;99.90;;;;;;5008687;28;20569;-53
2021/12/05 15:32:42;;;;;;;26.00;14.32;;;0.40;99.90;;;;;;5009249;28;20115;-48
2021/12/05 15:35:13;;;;;;;19.35;14.23;;;0.40;99.90;;;;;;5009824;28;20044;-57
2021/12/05 15:37:49;;;;;;;22.42;13.32;;;0.40;99.90;;;;;;5009586;28;20080;-51
2021/12/05 15:40:16;;;;;;;22.92;14.07;;;0.40;99.90;;;;;;5009162;28;20553;-50
2021/12/05 15:42:41;;;;;;;21.88;14.50;;;0.50;99.90;;;;;;5009709;28;20490;-49
2021/12/05 15:45:10;;;;;;;23.48;15.40;;;0.50;99.90;;;;;;5009447;28;20038;-51
2021/12/05 15:47:37;;;;;;;23.05;15.15;;;0.40;99.90;;;;;;5007183;28;20041;-51
2021/12/05 15:50:12;;;;;;;23.60;14.13;;;0.50;99.90;;;;;;5009711;28;20549;-54
2021/12/05 15:52:40;;;;;;;20.27;13.98;;;0.50;99.90;;;;;;5009177;28;20510;-52
2021/12/05 15:55:17;;;;;;;23.77;13.75;;;0.50;99.90;;;;;;5009173;28;20084;-52
2021/12/05 15:57:47;;;;;;;20.38;13.63;;;0.50;99.90;;;;;;5009125;28;20552;-50
2021/12/05 16:00:22;;;;;;;21.05;13.65;;;0.50;99.90;;;;;;5008126;28;20029;-48
2021/12/05 16:02:57;;;;;;;19.60;12.88;;;0.50;99.90;;;;;;5009089;28;20037;-49
2021/12/05 16:05:24;;;;;;;28.08;15.20;;;0.50;99.90;;;;;;5007863;28;20057;-52
2021/12/05 16:07:51;;;;;;;21.30;12.98;;;0.50;99.90;;;;;;5009028;28;20076;-53
2021/12/05 16:10:23;;;;;;;20.48;13.50;;;0.50;99.90;;;;;;5008997;28;20055;-51
2021/12/05 16:12:52;;;;;;;23.67;14.15;;;0.50;99.90;;;;;;5008881;28;20026;-56
2021/12/05 16:15:24;;;;;;;22.65;14.60;;;0.60;99.90;;;;;;5007424;28;20022;-53
2021/12/05 16:18:01;;;;;;;26.25;14.80;;;0.60;99.90;;;;;;5007206;28;20117;-56
2021/12/05 16:20:41;;;;;;;24.67;13.90;;;0.60;99.90;;;;;;5007949;28;20033;-49
2021/12/05 16:23:10;;;;;;;24.27;15.48;;;0.60;99.90;;;;;;5009319;28;20127;-50
2021/12/05 16:25:40;;;;;;;28.60;16.17;;;0.60;99.90;;;;;;5009277;28;20037;-59
2021/12/05 16:28:12;;;;;;;29.02;16.85;;;0.60;99.90;;;;;;5008535;28;20060;-52
2021/12/05 16:30:41;;;;;;;28.30;16.90;;;0.60;99.90;;;;;;5008590;28;20038;-50
2021/12/05 16:33:08;;;;;;;29.88;16.02;;;0.60;99.90;;;;;;5009179;28;20529;-53
2021/12/05 16:35:37;;;;;;;26.15;17.02;;;0.60;99.90;;;;;;5007704;28;20037;-50
2021/12/05 16:38:27;;;;;;;23.25;14.80;;;0.60;99.90;;;;;;5008565;28;20036;-49
2021/12/05 16:41:01;;;;;;;25.10;15.48;;;0.60;99.90;;;;;;5008354;28;20033;-48
2021/12/05 16:43:29;;;;;;;25.10;16.23;;;0.60;99.90;;;;;;5008548;28;20085;-49
2021/12/05 16:46:03;;;;;;;28.17;16.90;;;0.60;99.90;;;;;;5008650;28;20560;-54
2021/12/05 16:48:29;;;;;;;22.92;15.13;;;0.60;99.90;;;;;;5007009;28;20061;-54
2021/12/05 16:50:54;;;;;;;27.52;15.30;;;0.60;99.90;;;;;;5007635;28;20115;-54
2021/12/05 16:53:32;;;;;;;31.60;17.33;;;0.60;99.90;;;;;;5008875;28;20057;-47
2021/12/05 16:56:00;;;;;;;25.83;16.42;;;0.60;99.90;;;;;;5008900;28;20056;-48
2021/12/05 16:58:26;;;;;;;26.42;16.15;;;0.60;99.90;;;;;;5008452;28;20489;-55
2021/12/05 17:00:53;;;;;;;29.55;17.17;;;0.60;99.90;;;;;;5009629;28;20113;-50
2021/12/05 17:03:26;;;;;;;29.10;16.15;;;0.60;99.90;;;;;;5008471;28;20049;-48
2021/12/05 17:05:59;;;;;;;23.60;16.05;;;0.50;99.90;;;;;;5008556;28;20080;-53
2021/12/05 17:08:26;;;;;;;26.20;16.58;;;0.60;99.90;;;;;;5008421;28;20387;-49
2021/12/05 17:11:02;;;;;;;24.70;15.45;;;0.60;99.90;;;;;;5008583;28;20036;-50
2021/12/05 17:13:39;;;;;;;28.98;16.70;;;0.60;99.90;;;;;;5007819;28;20477;-52
2021/12/05 17:16:21;;;;;;;27.27;17.17;;;0.60;99.90;;;;;;5008442;28;20038;-49
2021/12/05 17:18:53;;;;;;;29.83;16.83;;;0.60;99.90;;;;;;5007751;28;20037;-50
2021/12/05 17:21:21;;;;;;;26.40;17.27;;;0.60;99.90;;;;;;5008377;28;20454;-53
2021/12/05 17:23:53;;;;;;;25.27;16.58;;;0.60;99.90;;;;;;5008254;28;20729;-47
2021/12/05 17:26:23;;;;;;;27.35;17.73;;;0.60;99.90;;;;;;5008558;28;20022;-50
2021/12/05 17:28:51;;;;;;;29.27;17.17;;;0.60;99.90;;;;;;5008408;28;20105;-50
2021/12/05 17:31:24;;;;;;;33.72;17.55;;;0.50;99.90;;;;;;5005849;28;20034;-51
2021/12/05 17:33:56;;;;;;;31.67;18.52;;;0.60;99.90;;;;;;5006030;28;20403;-53
2021/12/05 17:36:30;;;;;;;29.60;17.80;;;0.60;99.90;;;;;;5005232;28;20026;-48
2021/12/05 17:39:11;;;;;;;27.33;17.75;;;0.50;99.90;;;;;;5007309;28;20506;-55
2021/12/05 17:41:38;;;;;;;29.75;19.08;;;0.50;99.90;;;;;;5008264;28;20213;-48
2021/12/05 17:44:04;;;;;;;31.35;18.42;;;0.50;99.90;;;;;;5007454;28;20128;-53
2021/12/05 17:46:32;;;;;;;28.10;17.67;;;0.40;99.90;;;;;;5007260;28;20084;-54
2021/12/05 17:48:58;;;;;;;28.90;18.63;;;0.40;99.90;;;;;;5011417;28;20044;-52
2021/12/05 17:51:32;;;;;;;28.95;19.42;;;0.40;99.90;;;;;;5012414;28;20022;-53
2021/12/05 17:53:59;;;;;;;26.38;16.25;;;0.40;99.90;;;;;;5011392;28;20030;-51
2021/12/05 17:56:38;;;;;;;27.52;18.17;;;0.40;99.90;;;;;;5011144;28;20080;-58
2021/12/05 17:59:24;;;;;;;26.27;18.15;;;0.40;99.90;;;;;;5011412;28;20038;-53
2021/12/05 18:04:37;;;;;;;;;;;0.40;99.90;;;;;;5012080;28;20168;-52
2021/12/05 18:07:02;;;;;;;25.90;14.83;;;0.50;99.90;;;;;;5010243;28;19995;-53
2021/12/05 18:09:28;;;;;;;28.10;17.15;;;0.40;99.90;;;;;;5010065;28;20022;-52
2021/12/05 18:11:54;;;;;;;31.20;17.98;;;0.40;99.90;;;;;;5012296;28;20506;-48
2021/12/05 18:14:20;;;;;;;29.20;17.50;;;0.50;99.90;;;;;;5011083;28;20434;-51
2021/12/05 18:16:46;;;;;;;26.33;17.08;;;0.50;99.90;;;;;;5011269;28;20104;-53
2021/12/05 18:19:18;;;;;;;27.95;18.45;;;0.40;99.90;;;;;;5009465;28;20084;-52
2021/12/05 18:21:47;;;;;;;28.77;18.85;;;0.40;99.90;;;;;;5011582;28;20033;-50
2021/12/05 18:24:15;;;;;;;28.02;18.10;;;0.40;99.90;;;;;;5009799;28;20556;-49
2021/12/05 18:26:42;;;;;;;27.30;18.45;;;0.30;99.90;;;;;;5011382;28;20413;-48
2021/12/05 18:29:10;;;;;;;26.15;17.10;;;0.30;99.90;;;;;;5010623;28;20036;-52
2021/12/05 18:31:38;;;;;;;30.88;19.00;;;0.30;99.90;;;;;;5007235;28;20076;-48